createdAt,value
2023-01-13T00:01:16.717Z,0.40
2023-01-13T00:03:43.576Z,0.65
2023-01-13T00:06:13.740Z,0.52
2023-01-13T00:08:40.363Z,0.77
2023-01-13T00:11:06.702Z,0.52
2023-01-13T00:13:35.208Z,0.55
2023-01-13T00:16:07.402Z,0.60
2023-01-13T00:18:34.126Z,0.50
2023-01-13T00:21:03.590Z,0.55
2023-01-13T00:23:31.609Z,0.60
2023-01-13T00:26:00.179Z,0.40
2023-01-13T00:28:26.537Z,0.60
2023-01-13T00:30:52.944Z,0.50
2023-01-13T00:33:19.517Z,0.65
2023-01-13T00:35:56.308Z,0.85
2023-01-13T00:38:22.684Z,0.88
2023-01-13T00:40:58.296Z,0.90
2023-01-13T00:43:25.669Z,0.60
2023-01-13T00:45:52.546Z,0.60
2023-01-13T00:48:20.573Z,0.70
2023-01-13T00:50:54.147Z,0.93
2023-01-13T00:53:20.560Z,1.00
2023-01-13T00:55:46.892Z,0.70
2023-01-13T00:58:13.256Z,0.80
2023-01-13T01:00:39.631Z,0.80
2023-01-13T01:03:12.113Z,0.93
2023-01-13T01:05:39.599Z,0.80
2023-01-13T01:08:05.985Z,1.23
2023-01-13T01:10:32.591Z,0.98
2023-01-13T01:12:58.991Z,0.98
2023-01-13T01:15:25.511Z,1.10
2023-01-13T01:17:52.135Z,1.00
2023-01-13T01:20:18.566Z,1.00
2023-01-13T01:22:44.961Z,1.10
2023-01-13T01:25:11.349Z,0.80
2023-01-13T01:27:37.751Z,0.73
2023-01-13T01:30:04.560Z,0.70
2023-01-13T01:32:33.266Z,0.85
2023-01-13T01:34:59.623Z,1.00
2023-01-13T01:37:25.983Z,0.77
2023-01-13T01:39:52.342Z,0.98
2023-01-13T01:42:37.591Z,1.00
2023-01-13T01:45:25.200Z,1.45
2023-01-13T01:47:57.384Z,1.23
2023-01-13T01:50:24.317Z,1.13
2023-01-13T01:52:57.390Z,1.20
2023-01-13T01:55:29.075Z,0.90
2023-01-13T01:58:21.307Z,1.00
2023-01-13T02:00:48.387Z,1.35
2023-01-13T02:03:17.765Z,1.52
2023-01-13T02:05:44.205Z,1.23
2023-01-13T02:08:13.031Z,1.08
2023-01-13T02:10:42.688Z,1.98
2023-01-13T02:13:13.060Z,1.17
2023-01-13T02:16:04.214Z,1.33
2023-01-13T02:18:33.459Z,1.42
2023-01-13T02:21:27.704Z,0.90
2023-01-13T02:24:28.163Z,1.38
2023-01-13T02:27:25.500Z,1.27
2023-01-13T02:30:29.358Z,1.13
2023-01-13T02:33:07.849Z,1.25
2023-01-13T02:35:52.051Z,1.65
2023-01-13T02:38:28.745Z,1.40
2023-01-13T02:41:27.318Z,1.63
2023-01-13T02:44:07.726Z,1.38
2023-01-13T02:46:46.677Z,1.38
2023-01-13T02:49:21.414Z,1.10
2023-01-13T02:51:50.569Z,1.60
2023-01-13T02:54:24.345Z,1.33
2023-01-13T02:56:51.122Z,0.90
2023-01-13T02:59:19.555Z,1.10
2023-01-13T03:01:47.705Z,0.98
2023-01-13T03:04:35.319Z,1.20
2023-01-13T03:07:43.047Z,0.90
2023-01-13T03:10:31.214Z,1.17
2023-01-13T03:13:24.499Z,0.93
2023-01-13T03:16:02.305Z,1.33
2023-01-13T03:18:45.494Z,1.13
2023-01-13T03:21:34.329Z,1.13
2023-01-13T03:24:07.142Z,0.68
2023-01-13T03:26:46.081Z,0.90
2023-01-13T03:29:19.307Z,1.00
2023-01-13T03:31:58.561Z,0.90
2023-01-13T03:34:33.076Z,0.90
2023-01-13T03:37:03.832Z,0.90
2023-01-13T03:39:34.469Z,0.90
2023-01-13T03:42:07.800Z,1.08
2023-01-13T03:44:58.059Z,1.33
2023-01-13T03:47:33.230Z,1.35
2023-01-13T03:50:09.173Z,1.10
2023-01-13T03:52:45.808Z,0.90
2023-01-13T03:55:16.083Z,1.02
2023-01-13T03:57:59.661Z,1.15
2023-01-13T04:00:32.240Z,1.20
2023-01-13T04:03:11.677Z,1.20
2023-01-13T04:05:47.096Z,0.90
2023-01-13T04:08:23.860Z,0.90
2023-01-13T04:11:03.583Z,1.00
2023-01-13T04:13:35.684Z,1.60
2023-01-13T04:16:02.381Z,1.20
2023-01-13T04:18:30.718Z,1.40
2023-01-13T04:21:01.011Z,1.25
2023-01-13T04:23:28.615Z,1.27
2023-01-13T04:25:55.548Z,1.23
2023-01-13T04:28:22.817Z,1.08
2023-01-13T04:30:49.327Z,1.42
2023-01-13T04:33:17.738Z,1.30
2023-01-13T04:35:45.439Z,1.50
2023-01-13T04:38:17.217Z,1.15
2023-01-13T04:40:44.229Z,1.38
2023-01-13T04:43:10.642Z,1.70
2023-01-13T04:45:37.224Z,2.00
2023-01-13T04:48:03.869Z,1.60
2023-01-13T04:50:30.335Z,1.20
2023-01-13T04:52:56.813Z,1.50
2023-01-13T04:55:24.294Z,1.60
2023-01-13T04:57:50.681Z,1.35
2023-01-13T05:00:19.340Z,1.58
2023-01-13T05:02:45.861Z,1.30
2023-01-13T05:05:12.412Z,0.90
2023-01-13T05:07:38.853Z,1.40
2023-01-13T05:10:05.758Z,1.48
2023-01-13T05:12:51.368Z,1.35
2023-01-13T05:15:36.295Z,1.88
2023-01-13T05:18:02.944Z,1.40
2023-01-13T05:20:29.349Z,1.30
2023-01-13T05:23:14.476Z,1.30
2023-01-13T05:25:44.384Z,1.40
2023-01-13T05:28:11.262Z,1.50
2023-01-13T05:30:42.508Z,1.10
2023-01-13T05:33:10.483Z,1.20
2023-01-13T05:35:45.584Z,1.23
2023-01-13T05:38:13.255Z,1.42
2023-01-13T05:40:59.637Z,1.33
2023-01-13T05:43:27.050Z,0.93
2023-01-13T05:46:02.327Z,1.30
2023-01-13T05:48:37.442Z,1.17
2023-01-13T05:51:05.985Z,1.40
2023-01-13T05:53:33.168Z,0.98
2023-01-13T05:55:59.712Z,1.00
2023-01-13T05:58:27.720Z,1.30
2023-01-13T06:01:00.242Z,1.25
2023-01-13T06:03:27.130Z,1.30
2023-01-13T06:05:58.665Z,1.30
2023-01-13T06:08:26.000Z,1.00
2023-01-13T06:10:53.748Z,0.95
2023-01-13T06:13:20.370Z,1.10
2023-01-13T06:15:46.823Z,0.90
2023-01-13T06:18:13.356Z,1.08
2023-01-13T06:20:39.800Z,1.70
2023-01-13T06:23:10.000Z,1.15
2023-01-13T06:25:46.521Z,1.33
2023-01-13T06:30:45.299Z,1.55
2023-01-13T06:33:14.775Z,1.23
2023-01-13T06:35:45.573Z,0.85
2023-01-13T06:38:16.137Z,1.08
2023-01-13T06:40:43.244Z,1.20
2023-01-13T06:43:16.946Z,1.48
2023-01-13T06:45:46.086Z,1.10
2023-01-13T06:48:12.871Z,1.60
2023-01-13T06:50:39.388Z,1.20
2023-01-13T06:53:05.928Z,1.05
2023-01-13T06:55:32.387Z,1.10
2023-01-13T06:57:58.967Z,1.38
2023-01-13T07:00:26.793Z,1.65
2023-01-13T07:02:54.094Z,1.45
2023-01-13T07:05:21.667Z,1.23
2023-01-13T07:07:48.129Z,1.65
2023-01-13T07:10:22.430Z,1.30
2023-01-13T07:13:08.387Z,1.23
2023-01-13T07:15:35.355Z,1.20
2023-01-13T07:18:02.413Z,0.98
2023-01-13T07:20:30.496Z,1.40
2023-01-13T07:22:57.761Z,0.95
2023-01-13T07:25:24.327Z,1.15
2023-01-13T07:27:50.706Z,1.60
2023-01-13T07:30:17.476Z,2.03
2023-01-13T07:32:43.822Z,1.60
2023-01-13T07:35:10.317Z,1.30
2023-01-13T07:37:39.389Z,1.35
2023-01-13T07:40:06.745Z,1.10
2023-01-13T07:42:51.936Z,1.20
2023-01-13T07:45:18.345Z,1.15
2023-01-13T07:47:44.720Z,1.10
2023-01-13T07:50:11.438Z,1.52
2023-01-13T07:52:37.829Z,1.20
2023-01-13T07:55:04.436Z,1.00
2023-01-13T07:57:30.831Z,1.30
2023-01-13T07:59:57.183Z,1.10
2023-01-13T08:02:23.802Z,1.50
2023-01-13T08:04:50.227Z,1.23
2023-01-13T08:07:16.598Z,1.60
2023-01-13T08:09:43.001Z,2.00
2023-01-13T08:12:27.838Z,1.20
2023-01-13T08:14:54.579Z,1.58
2023-01-13T08:17:21.406Z,1.30
2023-01-13T08:19:47.916Z,1.88
2023-01-13T08:22:14.373Z,1.25
2023-01-13T08:24:41.050Z,1.98
2023-01-13T08:27:07.628Z,1.30
2023-01-13T08:29:34.060Z,1.58
2023-01-13T08:32:00.487Z,1.60
2023-01-13T08:34:27.029Z,1.35
2023-01-13T08:36:53.385Z,1.60
2023-01-13T08:39:20.078Z,1.70
2023-01-13T08:41:55.637Z,1.50
2023-01-13T08:44:24.662Z,1.77
2023-01-13T08:46:52.798Z,1.60
2023-01-13T08:49:19.484Z,1.60
2023-01-13T08:51:46.034Z,1.63
2023-01-13T08:54:12.767Z,1.48
2023-01-13T08:56:41.126Z,1.80
2023-01-13T08:59:11.560Z,1.90
2023-01-13T09:01:39.334Z,1.90
2023-01-13T09:04:07.160Z,1.75
2023-01-13T09:06:33.625Z,1.58
2023-01-13T09:09:00.710Z,2.10
2023-01-13T09:11:50.913Z,2.35
2023-01-13T09:14:22.810Z,2.20
2023-01-13T09:16:49.593Z,2.13
2023-01-13T09:19:16.378Z,1.98
2023-01-13T09:21:42.834Z,2.30
2023-01-13T09:24:09.393Z,2.15
2023-01-13T09:26:37.948Z,1.70
2023-01-13T09:29:05.321Z,2.13
2023-01-13T09:31:35.024Z,2.53
2023-01-13T09:34:25.365Z,1.40
2023-01-13T09:36:52.210Z,2.85
2023-01-13T09:39:18.756Z,2.17
2023-01-13T09:42:08.531Z,1.60
2023-01-13T09:45:05.036Z,1.98
2023-01-13T09:48:02.473Z,2.08
2023-01-13T09:53:01.212Z,1.95
2023-01-13T09:55:33.973Z,1.75
2023-01-13T09:58:13.183Z,1.98
2023-01-13T10:00:45.212Z,2.50
2023-01-13T10:03:29.707Z,2.40
2023-01-13T10:06:04.532Z,1.95
2023-01-13T10:08:40.737Z,1.90
2023-01-13T10:11:37.645Z,1.92
2023-01-13T10:14:15.527Z,3.25
2023-01-13T10:16:48.147Z,1.77
2023-01-13T10:19:33.727Z,2.53
2023-01-13T10:22:20.744Z,2.08
2023-01-13T10:25:18.340Z,2.00
2023-01-13T10:27:49.274Z,2.30
2023-01-13T10:30:31.146Z,1.67
2023-01-13T10:33:06.468Z,2.45
2023-01-13T10:35:57.911Z,1.83
2023-01-13T10:38:40.172Z,2.45
2023-01-13T10:41:23.212Z,2.42
2023-01-13T10:43:55.569Z,2.22
2023-01-13T10:46:21.981Z,2.60
2023-01-13T10:49:00.137Z,2.25
2023-01-13T10:51:43.593Z,2.08
2023-01-13T10:54:13.063Z,1.88
2023-01-13T10:56:45.003Z,1.60
2023-01-13T10:59:29.983Z,2.15
2023-01-13T11:01:59.385Z,2.38
2023-01-13T11:04:36.691Z,2.08
2023-01-13T11:07:06.214Z,2.05
2023-01-13T11:09:32.861Z,2.40
2023-01-13T11:12:00.269Z,1.92
2023-01-13T11:14:41.393Z,2.33
2023-01-13T11:17:42.109Z,2.08
2023-01-13T11:20:11.492Z,2.60
2023-01-13T11:22:45.455Z,2.35
2023-01-13T11:25:23.293Z,2.70
2023-01-13T11:28:00.655Z,1.92
2023-01-13T11:30:55.297Z,2.15
2023-01-13T11:33:35.009Z,2.22
2023-01-13T11:36:20.953Z,2.55
2023-01-13T11:38:54.579Z,2.33
2023-01-13T11:41:23.890Z,1.92
2023-01-13T11:44:23.396Z,2.53
2023-01-13T11:46:53.512Z,2.33
2023-01-13T11:49:30.811Z,1.73
2023-01-13T11:52:07.930Z,2.47
2023-01-13T11:54:55.270Z,2.25
2023-01-13T11:57:52.328Z,2.33
2023-01-13T12:01:02.719Z,2.75
2023-01-13T12:03:57.482Z,2.38
2023-01-13T12:06:37.797Z,2.20
2023-01-13T12:09:23.310Z,1.83
2023-01-13T12:12:22.638Z,1.90
2023-01-13T12:15:04.130Z,1.83
2023-01-13T12:17:51.931Z,2.00
2023-01-13T12:20:27.310Z,2.15
2023-01-13T12:22:58.267Z,2.38
2023-01-13T12:25:41.939Z,1.98
2023-01-13T12:28:21.072Z,2.22
2023-01-13T12:30:56.474Z,1.85
2023-01-13T12:33:38.176Z,1.87
2023-01-13T12:36:29.759Z,1.83
2023-01-13T12:39:06.575Z,2.10
2023-01-13T12:42:02.442Z,2.33
2023-01-13T12:44:28.835Z,1.98
2023-01-13T12:46:57.242Z,1.85
2023-01-13T12:49:25.140Z,1.80
2023-01-13T12:51:51.606Z,2.08
2023-01-13T12:54:50.128Z,2.00
2023-01-13T12:57:16.467Z,2.33
2023-01-13T12:59:48.885Z,2.40
2023-01-13T13:02:15.861Z,2.22
2023-01-13T13:04:51.908Z,1.65
2023-01-13T13:07:39.456Z,2.78
2023-01-13T13:10:29.995Z,1.83
2023-01-13T13:13:18.434Z,1.90
2023-01-13T13:15:48.972Z,2.15
2023-01-13T13:18:18.304Z,2.25
2023-01-13T13:21:04.455Z,1.88
2023-01-13T13:23:37.122Z,2.35
2023-01-13T13:26:16.643Z,1.60
2023-01-13T13:29:24.078Z,1.80
2023-01-13T13:31:56.761Z,2.42
2023-01-13T13:34:45.052Z,2.28
2023-01-13T13:37:23.532Z,1.98
2023-01-13T13:40:08.509Z,1.90
2023-01-13T13:43:01.931Z,2.38
2023-01-13T13:45:47.595Z,1.85
2023-01-13T13:48:30.947Z,2.05
2023-01-13T13:51:04.037Z,2.15
2023-01-13T13:53:42.278Z,1.90
2023-01-13T13:56:26.196Z,2.20
2023-01-13T13:58:53.329Z,2.05
2023-01-13T14:01:26.827Z,1.92
2023-01-13T14:04:25.896Z,2.25
2023-01-13T14:07:00.456Z,1.98
2023-01-13T14:09:44.378Z,2.20
2023-01-13T14:12:26.289Z,2.38
2023-01-13T14:14:55.825Z,1.77
2023-01-13T14:17:28.927Z,2.03
2023-01-13T14:20:07.766Z,1.80
2023-01-13T14:22:34.612Z,2.38
2023-01-13T14:25:01.902Z,2.40
2023-01-13T14:27:29.968Z,2.20
2023-01-13T14:29:59.558Z,1.80
2023-01-13T14:32:37.228Z,2.00
2023-01-13T14:35:07.683Z,2.38
2023-01-13T14:37:37.668Z,2.00
2023-01-13T14:40:05.112Z,2.30
2023-01-13T14:42:35.174Z,1.73
2023-01-13T14:45:02.538Z,1.90
2023-01-13T14:47:33.600Z,1.58
2023-01-13T14:50:07.498Z,1.63
2023-01-13T14:52:47.768Z,1.50
2023-01-13T14:55:36.329Z,1.73
2023-01-13T14:58:25.188Z,1.58
2023-01-13T15:01:12.600Z,1.75
2023-01-13T15:03:42.671Z,1.98
2023-01-13T15:06:29.485Z,2.25
2023-01-13T15:08:55.937Z,1.50
2023-01-13T15:11:28.590Z,1.30
2023-01-13T15:14:03.663Z,1.92
2023-01-13T15:16:33.794Z,1.73
2023-01-13T15:19:01.100Z,1.75
2023-01-13T15:21:27.508Z,1.75
2023-01-13T15:23:54.025Z,1.70
2023-01-13T15:26:28.835Z,2.22
2023-01-13T15:28:57.489Z,2.00
2023-01-13T15:31:24.850Z,1.60
2023-01-13T15:33:51.439Z,1.48
2023-01-13T15:36:27.305Z,2.28
2023-01-13T15:38:53.860Z,1.90
2023-01-13T15:41:39.258Z,1.95
2023-01-13T15:44:24.092Z,1.80
2023-01-13T15:46:51.875Z,1.95
2023-01-13T15:49:44.851Z,1.60
2023-01-13T15:52:22.058Z,1.77
2023-01-13T15:54:49.319Z,2.08
2023-01-13T15:57:22.459Z,2.00
2023-01-13T15:59:49.764Z,1.92
2023-01-13T16:02:18.222Z,1.60
2023-01-13T16:04:45.344Z,2.13
2023-01-13T16:07:15.846Z,2.35
2023-01-13T16:09:42.830Z,2.13
2023-01-13T16:12:09.305Z,2.28
2023-01-13T16:14:35.714Z,2.17
2023-01-13T16:17:03.363Z,2.03
2023-01-13T16:19:29.828Z,1.70
2023-01-13T16:21:58.788Z,1.70
2023-01-13T16:24:25.150Z,2.08
2023-01-13T16:26:51.584Z,1.98
2023-01-13T16:29:18.155Z,1.60
2023-01-13T16:31:44.551Z,2.08
2023-01-13T16:34:11.027Z,2.05
2023-01-13T16:36:37.559Z,2.50
2023-01-13T16:39:05.360Z,1.95
2023-01-13T16:41:33.472Z,1.70
2023-01-13T16:44:05.817Z,2.42
2023-01-13T16:46:32.256Z,1.80
2023-01-13T16:49:03.168Z,1.55
2023-01-13T16:51:29.618Z,2.33
2023-01-13T16:53:56.438Z,2.28
2023-01-13T16:56:28.450Z,2.13
2023-01-13T16:58:57.110Z,2.83
2023-01-13T17:01:44.669Z,2.20
2023-01-13T17:04:16.759Z,2.15
2023-01-13T17:07:02.582Z,2.15
2023-01-13T17:09:30.266Z,2.17
2023-01-13T17:11:57.340Z,2.45
2023-01-13T17:14:24.882Z,2.00
2023-01-13T17:16:53.581Z,2.10
2023-01-13T17:19:22.854Z,2.17
2023-01-13T17:21:51.078Z,2.20
2023-01-13T17:24:18.354Z,2.00
2023-01-13T17:26:48.919Z,2.50
2023-01-13T17:29:22.024Z,2.03
2023-01-13T17:31:49.531Z,2.22
2023-01-13T17:34:15.960Z,1.77
2023-01-13T17:36:45.186Z,2.35
2023-01-13T17:39:26.432Z,2.65
2023-01-13T17:41:55.933Z,2.17
2023-01-13T17:44:23.549Z,2.00
2023-01-13T17:46:50.675Z,2.17
2023-01-13T17:49:19.487Z,2.40
2023-01-13T17:51:50.969Z,2.55
2023-01-13T17:54:18.146Z,2.25
2023-01-13T17:56:44.722Z,2.08
2023-01-13T17:59:13.062Z,2.28
2023-01-13T18:01:40.185Z,2.00
2023-01-13T18:04:07.726Z,2.28
2023-01-13T18:06:34.200Z,2.60
2023-01-13T18:09:08.144Z,2.30
2023-01-13T18:11:36.104Z,2.50
2023-01-13T18:14:03.497Z,2.60
2023-01-13T18:16:40.677Z,2.03
2023-01-13T18:19:29.971Z,2.65
2023-01-13T18:22:14.972Z,1.90
2023-01-13T18:25:06.325Z,1.83
2023-01-13T18:27:36.354Z,2.35
2023-01-13T18:30:04.672Z,1.88
2023-01-13T18:32:33.656Z,2.30
2023-01-13T18:35:06.439Z,1.80
2023-01-13T18:37:35.780Z,1.98
2023-01-13T18:40:02.624Z,1.65
2023-01-13T18:42:50.509Z,2.33
2023-01-13T18:45:18.808Z,2.15
2023-01-13T18:47:45.556Z,2.30
2023-01-13T18:50:13.620Z,2.10
2023-01-13T18:52:40.779Z,1.83
2023-01-13T18:55:07.421Z,2.85
2023-01-13T18:57:37.409Z,2.30
2023-01-13T19:00:04.178Z,2.13
2023-01-13T19:02:31.533Z,2.67
2023-01-13T19:04:57.910Z,2.10
2023-01-13T19:07:28.208Z,2.08
2023-01-13T19:09:55.934Z,2.33
2023-01-13T19:12:30.872Z,2.05
2023-01-13T19:14:58.443Z,2.60
2023-01-13T19:17:26.831Z,1.98
2023-01-13T19:19:55.786Z,2.53
2023-01-13T19:22:32.548Z,2.33
2023-01-13T19:25:00.083Z,2.10
2023-01-13T19:27:30.279Z,2.60
2023-01-13T19:30:00.742Z,2.42
2023-01-13T19:32:30.564Z,2.15
2023-01-13T19:34:59.367Z,1.73
2023-01-13T19:37:30.037Z,2.35
2023-01-13T19:39:58.121Z,2.28
2023-01-13T19:42:43.171Z,3.17
2023-01-13T19:45:30.811Z,2.20
2023-01-13T19:48:00.749Z,2.67
2023-01-13T19:50:27.742Z,2.50
2023-01-13T19:52:54.249Z,2.60
2023-01-13T19:55:20.670Z,3.05
2023-01-13T19:57:47.458Z,2.28
2023-01-13T20:00:18.238Z,3.05
2023-01-13T20:02:49.069Z,2.65
2023-01-13T20:05:20.919Z,3.00
2023-01-13T20:07:48.699Z,2.55
2023-01-13T20:10:16.188Z,2.42
2023-01-13T20:12:42.635Z,2.88
2023-01-13T20:15:09.790Z,2.40
2023-01-13T20:17:36.311Z,2.80
2023-01-13T20:20:04.046Z,2.40
2023-01-13T20:22:30.442Z,2.38
2023-01-13T20:24:56.858Z,2.10
2023-01-13T20:27:24.000Z,2.45
2023-01-13T20:29:51.523Z,2.72
2023-01-13T20:32:18.084Z,3.10
2023-01-13T20:34:44.536Z,2.40
2023-01-13T20:37:10.958Z,2.38
2023-01-13T20:39:37.400Z,2.58
2023-01-13T20:42:22.505Z,2.90
2023-01-13T20:44:49.533Z,2.28
2023-01-13T20:47:16.338Z,3.17
2023-01-13T20:49:42.728Z,2.80
2023-01-13T20:52:09.627Z,2.40
2023-01-13T20:54:40.648Z,2.83
2023-01-13T20:57:09.817Z,2.92
2023-01-13T20:59:37.673Z,2.90
2023-01-13T21:02:05.865Z,2.67
2023-01-13T21:04:32.273Z,2.45
2023-01-13T21:06:58.668Z,2.35
2023-01-13T21:09:26.481Z,2.63
2023-01-13T21:12:12.228Z,2.35
2023-01-13T21:14:57.018Z,2.80
2023-01-13T21:17:42.399Z,2.65
2023-01-13T21:20:11.333Z,2.17
2023-01-13T21:22:38.883Z,2.83
2023-01-13T21:25:06.119Z,2.85
2023-01-13T21:27:32.834Z,2.45
2023-01-13T21:29:59.192Z,2.58
2023-01-13T21:32:25.661Z,3.50
2023-01-13T21:34:52.048Z,2.80
2023-01-13T21:37:18.594Z,2.53
2023-01-13T21:39:45.388Z,2.97
2023-01-13T21:42:33.942Z,2.30
2023-01-13T21:45:18.860Z,2.53
2023-01-13T21:47:48.419Z,2.95
2023-01-13T21:50:23.462Z,2.60
2023-01-13T21:52:52.534Z,2.78
2023-01-13T21:55:20.838Z,3.05
2023-01-13T21:57:48.422Z,2.55
2023-01-13T22:00:16.625Z,2.83
2023-01-13T22:02:44.003Z,3.03
2023-01-13T22:05:12.190Z,3.53
2023-01-13T22:07:39.716Z,2.80
2023-01-13T22:10:09.030Z,2.97
2023-01-13T22:12:36.105Z,2.78
2023-01-13T22:15:02.983Z,2.28
2023-01-13T22:17:31.487Z,2.22
2023-01-13T22:19:58.875Z,3.13
2023-01-13T22:22:26.215Z,3.00
2023-01-13T22:24:53.556Z,2.95
2023-01-13T22:27:25.170Z,2.63
2023-01-13T22:29:52.767Z,2.35
2023-01-13T22:32:20.637Z,3.45
2023-01-13T22:34:47.915Z,2.40
2023-01-13T22:37:14.751Z,2.58
2023-01-13T22:39:41.187Z,2.55
2023-01-13T22:42:07.781Z,2.80
2023-01-13T22:44:34.288Z,3.13
2023-01-13T22:47:00.981Z,2.40
2023-01-13T22:49:27.447Z,2.10
2023-01-13T22:51:54.113Z,2.72
2023-01-13T22:54:20.624Z,2.53
2023-01-13T22:56:47.059Z,3.40
2023-01-13T22:59:14.489Z,2.33
2023-01-13T23:01:42.127Z,2.13
2023-01-13T23:04:11.737Z,2.25
2023-01-13T23:06:38.396Z,2.90
2023-01-13T23:09:04.814Z,3.10
2023-01-13T23:11:31.287Z,2.90
2023-01-13T23:14:02.694Z,2.13
2023-01-13T23:16:30.759Z,2.10
2023-01-13T23:18:57.203Z,2.83
2023-01-13T23:21:26.556Z,2.60
2023-01-13T23:23:54.284Z,2.65
2023-01-13T23:26:21.594Z,2.28
2023-01-13T23:28:48.465Z,2.75
2023-01-13T23:31:18.496Z,3.15
2023-01-13T23:33:44.922Z,3.05
2023-01-13T23:36:17.333Z,2.65
2023-01-13T23:38:44.507Z,2.40
2023-01-13T23:41:13.922Z,2.63
2023-01-13T23:43:40.784Z,2.53
2023-01-13T23:46:13.422Z,2.63
2023-01-13T23:48:40.255Z,2.38
2023-01-13T23:51:10.533Z,2.80
2023-01-13T23:53:43.024Z,2.35
2023-01-13T23:56:16.431Z,2.83
2023-01-13T23:58:43.508Z,2.75
